Time;durP1;ratioP1;P1;durP2;ratioP2;P2;SDS_P1;SDS_P2;PMS_P1;PMS_P2;Temp;Humidity;BMP_temperature;BMP_pressure;BME280_temperature;BME280_humidity;BME280_pressure;Samples;Min_cycle;Max_cycle;Signal;HPM_P1;HPM_P2
2022/08/01 00:01:25;;;;;;;;;;;;;;;24.77;53.14;153885.31;1697896;84;20229;-58
2022/08/01 00:03:51;;;;;;;;;;;;;;;24.78;53.02;153887.94;1697682;84;20165;-58
2022/08/01 00:06:18;;;;;;;;;;;;;;;24.77;52.97;153885.31;1686177;84;20496;-59
2022/08/01 00:08:45;;;;;;;;;;;;;;;24.75;52.97;153880.09;1683831;85;20447;-59
2022/08/01 00:11:13;;;;;;;;;;;;;;;24.77;52.98;153884.03;1698512;82;21147;-59
2022/08/01 00:13:40;;;;;;;;;;;;;;;24.78;52.81;153887.94;1733359;82;20171;-60
2022/08/01 00:16:07;;;;;;;;;;;;;;;24.83;52.61;153899.73;1733884;81;20247;-59
2022/08/01 00:18:35;;;;;;;;;;;;;;;24.88;52.34;153912.83;1720138;81;20173;-59
2022/08/01 00:21:03;;;;;;;;;;;;;;;24.90;52.29;153918.06;1706410;83;20197;-59
2022/08/01 00:23:31;;;;;;;;;;;;;;;24.87;52.37;153911.53;1706442;83;21135;-59
2022/08/01 00:25:58;;;;;;;;;;;;;;;24.85;52.51;153906.25;1706170;84;20176;-59
2022/08/01 00:28:25;;;;;;;;;;;;;;;24.78;52.76;153886.66;1706208;82;21024;-59
2022/08/01 00:30:51;;;;;;;;;;;;;;;24.72;53.06;153872.19;1705692;83;20506;-59
2022/08/01 00:33:18;;;;;;;;;;;;;;;24.75;53.11;153880.09;1705778;84;20212;-59
2022/08/01 00:35:45;;;;;;;;;;;;;;;24.78;53.09;153886.66;1705878;83;21257;-59
2022/08/01 00:38:12;;;;;;;;;;;;;;;24.79;53.14;153889.27;1706100;84;20427;-59
2022/08/01 00:40:38;;;;;;;;;;;;;;;24.78;53.12;153887.94;1706201;83;20169;-59
2022/08/01 00:43:05;;;;;;;;;;;;;;;24.72;53.21;153872.19;1706322;84;20192;-59
2022/08/01 00:45:32;;;;;;;;;;;;;;;24.71;53.33;153870.84;1706882;83;20209;-59
2022/08/01 00:47:58;;;;;;;;;;;;;;;24.66;53.44;153856.48;1706625;83;21171;-59
2022/08/01 00:50:25;;;;;;;;;;;;;;;24.62;53.53;153847.30;1706361;82;20485;-58
2022/08/01 00:52:52;;;;;;;;;;;;;;;24.55;53.71;153830.25;1706786;83;20427;-59
2022/08/01 00:55:18;;;;;;;;;;;;;;;24.53;53.78;153825.03;1706453;84;20461;-59
2022/08/01 00:57:45;;;;;;;;;;;;;;;24.47;53.92;153809.33;1706935;83;20213;-58
2022/08/01 01:00:13;;;;;;;;;;;;;;;24.48;54.03;153811.94;1706761;83;21152;-58
2022/08/01 01:02:40;;;;;;;;;;;;;;;24.48;54.11;153811.94;1706393;83;20214;-59
2022/08/01 01:05:08;;;;;;;;;;;;;;;24.44;54.32;153802.75;1701791;84;20200;-59
2022/08/01 01:07:57;;;;;;;;;;;;;;;24.46;54.35;153806.70;1692736;84;20169;-59
2022/08/01 01:10:29;;;;;;;;;;;;;;;24.43;54.45;153798.86;1688854;84;20174;-58
2022/08/01 01:13:12;;;;;;;;;;;;;;;24.42;54.76;153796.19;1676125;84;21153;-58
2022/08/01 01:15:55;;;;;;;;;;;;;;;24.44;54.92;153802.75;1676790;85;20484;-58
2022/08/01 01:18:27;;;;;;;;;;;;;;;24.44;55.19;153801.47;1686814;84;20213;-58
2022/08/01 01:21:06;;;;;;;;;;;;;;;24.43;55.47;153798.86;1702322;84;20214;-58
2022/08/01 01:23:52;;;;;;;;;;;;;;;24.36;55.72;153780.50;1703638;83;20140;-58
2022/08/01 01:26:25;;;;;;;;;;;;;;;24.28;56.09;153762.17;1703135;84;21214;-58
2022/08/01 01:29:06;;;;;;;;;;;;;;;24.23;56.39;153749.09;1703166;83;20226;-58
2022/08/01 01:31:36;;;;;;;;;;;;;;;24.18;56.59;153737.28;1703712;83;20486;-59
2022/08/01 01:34:03;;;;;;;;;;;;;;;24.14;56.89;153725.50;1699751;84;20150;-58
2022/08/01 01:36:31;;;;;;;;;;;;;;;24.14;56.93;153725.50;1703623;83;20167;-59
2022/08/01 01:38:58;;;;;;;;;;;;;;;24.13;56.92;153722.88;1708387;83;22672;-59
2022/08/01 01:41:25;;;;;;;;;;;;;;;24.12;57.01;153720.25;1708223;84;20319;-59
2022/08/01 01:43:51;;;;;;;;;;;;;;;24.13;57.09;153722.88;1705958;83;20185;-59
2022/08/01 01:46:22;;;;;;;;;;;;;;;24.13;57.15;153724.22;1698816;83;20175;-58
2022/08/01 01:48:48;;;;;;;;;;;;;;;24.08;57.37;153709.80;1699004;83;20178;-59
2022/08/01 01:51:15;;;;;;;;;;;;;;;23.99;57.64;153688.81;1698832;84;21260;-59
2022/08/01 01:53:41;;;;;;;;;;;;;;;23.97;57.63;153682.25;1699056;83;20180;-59
2022/08/01 01:56:08;;;;;;;;;;;;;;;23.98;57.75;153684.88;1698856;83;20478;-58
2022/08/01 01:58:35;;;;;;;;;;;;;;;23.97;57.64;153683.53;1698565;84;20166;-59
2022/08/01 02:01:01;;;;;;;;;;;;;;;23.95;57.74;153678.31;1698677;83;20206;-58
2022/08/01 02:03:28;;;;;;;;;;;;;;;23.97;57.71;153683.53;1698922;84;21222;-58
2022/08/01 02:05:56;;;;;;;;;;;;;;;24.00;57.67;153691.44;1684077;84;20164;-58
2022/08/01 02:08:24;;;;;;;;;;;;;;;24.07;57.66;153707.19;1677063;84;20156;-58
2022/08/01 02:13:37;;;;;;;;;;;;;;;24.19;57.50;153738.58;1697465;84;20201;-59
2022/08/01 02:16:04;;;;;;;;;;;;;;;24.19;57.72;153738.58;1735832;82;21250;-59
2022/08/01 02:18:30;;;;;;;;;;;;;;;24.17;57.86;153733.34;1729560;82;20195;-59
2022/08/01 02:20:57;;;;;;;;;;;;;;;24.11;58.29;153718.97;1728304;82;20163;-59
2022/08/01 02:23:24;;;;;;;;;;;;;;;23.99;58.79;153688.81;1728543;82;20423;-60
2022/08/01 02:25:52;;;;;;;;;;;;;;;23.96;59.34;153680.92;1728250;82;20207;-59
2022/08/01 02:28:28;;;;;;;;;;;;;;;23.90;59.82;153665.22;1730257;82;21264;-59
2022/08/01 02:30:57;;;;;;;;;;;;;;;23.83;60.29;153646.91;1728155;83;20155;-59
2022/08/01 02:33:27;;;;;;;;;;;;;;;23.80;60.78;153640.34;1728606;82;20550;-59
2022/08/01 02:35:56;;;;;;;;;;;;;;;23.79;61.28;153636.45;1726465;82;20504;-59
2022/08/01 02:38:25;;;;;;;;;;;;;;;23.72;62.06;153620.70;1728192;82;20184;-57
2022/08/01 02:40:52;;;;;;;;;;;;;;;23.65;62.69;153601.06;1728089;82;21233;-57
2022/08/01 02:43:22;;;;;;;;;;;;;;;23.61;63.34;153591.94;1728235;82;20088;-57
2022/08/01 02:45:54;;;;;;;;;;;;;;;23.57;63.84;153582.75;1727988;82;20228;-58
2022/08/01 02:48:21;;;;;;;;;;;;;;;23.53;64.30;153570.95;1728446;82;20339;-57
2022/08/01 02:50:48;;;;;;;;;;;;;;;23.44;64.74;153550.03;1728263;83;20172;-58
2022/08/01 02:53:16;;;;;;;;;;;;;;;23.36;65.16;153529.11;1727880;82;21512;-58
2022/08/01 02:55:44;;;;;;;;;;;;;;;23.31;65.53;153516.00;1728396;82;20205;-57
2022/08/01 02:58:11;;;;;;;;;;;;;;;23.22;65.75;153492.41;1728461;82;20156;-57
2022/08/01 03:00:38;;;;;;;;;;;;;;;23.12;65.71;153468.88;1728231;82;20452;-58
2022/08/01 03:03:05;;;;;;;;;;;;;;;23.08;65.85;153458.36;1727945;82;20210;-57
2022/08/01 03:05:32;;;;;;;;;;;;;;;23.10;65.78;153462.31;1720913;83;21244;-57
2022/08/01 03:07:59;;;;;;;;;;;;;;;23.08;65.68;153457.08;1706531;82;20205;-58
2022/08/01 03:10:27;;;;;;;;;;;;;;;23.07;65.40;153454.47;1707922;82;20204;-58
2022/08/01 03:12:53;;;;;;;;;;;;;;;23.04;65.11;153449.23;1735724;81;20198;-58
2022/08/01 03:15:20;;;;;;;;;;;;;;;23.03;64.84;153445.28;1733570;81;20558;-58
2022/08/01 03:17:47;;;;;;;;;;;;;;;22.99;64.07;153434.83;1733441;82;21112;-57
2022/08/01 03:20:14;;;;;;;;;;;;;;;22.93;64.30;153419.14;1732999;82;20388;-57
2022/08/01 03:22:41;;;;;;;;;;;;;;;22.93;64.09;153419.14;1733693;82;20214;-57
2022/08/01 03:25:08;;;;;;;;;;;;;;;22.93;63.95;153420.42;1732902;82;20175;-58
2022/08/01 03:27:36;;;;;;;;;;;;;;;22.99;63.82;153434.83;1733568;82;20172;-59
2022/08/01 03:30:05;;;;;;;;;;;;;;;23.03;63.69;153446.63;1732845;82;21225;-58
2022/08/01 03:32:31;;;;;;;;;;;;;;;23.04;63.52;153447.91;1733326;82;20127;-58
2022/08/01 03:34:58;;;;;;;;;;;;;;;23.01;63.39;153440.06;1732997;82;20463;-58
2022/08/01 03:37:26;;;;;;;;;;;;;;;22.97;63.31;153429.59;1733348;82;20520;-58
2022/08/01 03:40:20;;;;;;;;;;;;;;;22.96;62.99;153426.98;1733086;82;20175;-59
2022/08/01 03:42:50;;;;;;;;;;;;;;;22.93;62.88;153419.14;1733112;82;21300;-59
2022/08/01 03:45:22;;;;;;;;;;;;;;;22.94;62.58;153421.77;1732694;82;20164;-58
2022/08/01 03:47:49;;;;;;;;;;;;;;;22.95;62.43;153424.38;1732887;82;20198;-58
2022/08/01 03:50:16;;;;;;;;;;;;;;;22.97;62.13;153429.59;1732972;82;20135;-59
2022/08/01 03:52:44;;;;;;;;;;;;;;;22.99;61.83;153436.16;1732933;82;20187;-60
2022/08/01 03:55:11;;;;;;;;;;;;;;;23.04;61.29;153447.91;1732865;82;22192;-76
2022/08/01 03:57:38;;;;;;;;;;;;;;;23.09;61.13;153460.98;1733165;82;20191;-76
2022/08/01 04:00:08;;;;;;;;;;;;;;;23.17;61.09;153481.94;1733074;82;20195;-78
2022/08/01 04:02:36;;;;;;;;;;;;;;;23.29;60.40;153512.09;1732817;82;20131;-58
2022/08/01 04:05:04;;;;;;;;;;;;;;;23.33;59.84;153521.27;1723723;82;20193;-59
2022/08/01 04:07:32;;;;;;;;;;;;;;;23.38;59.59;153534.34;1704466;84;21910;-58
2022/08/01 04:09:59;;;;;;;;;;;;;;;23.44;59.34;153548.75;1704041;83;20221;-57
2022/08/01 04:12:25;;;;;;;;;;;;;;;23.51;58.67;153565.72;1729239;82;20639;-59
2022/08/01 04:14:53;;;;;;;;;;;;;;;23.52;58.50;153568.34;1732823;82;20736;-58
2022/08/01 04:17:19;;;;;;;;;;;;;;;23.57;58.31;153581.47;1733671;82;20151;-58
2022/08/01 04:19:46;;;;;;;;;;;;;;;23.60;58.09;153590.59;1704951;82;21211;-58
2022/08/01 04:22:14;;;;;;;;;;;;;;;23.63;57.88;153597.16;1704136;84;20159;-58
2022/08/01 04:24:42;;;;;;;;;;;;;;;23.64;57.79;153599.78;1705435;83;20197;-76
2022/08/01 04:27:12;;;;;;;;;;;;;;;23.61;57.68;153591.94;1704458;83;20174;-77
2022/08/01 04:29:38;;;;;;;;;;;;;;;23.58;57.66;153585.37;1704908;83;20173;-77
2022/08/01 04:32:07;;;;;;;;;;;;;;;23.59;57.71;153586.70;1704386;82;21325;-77
2022/08/01 04:34:34;;;;;;;;;;;;;;;23.58;57.90;153584.09;1705178;83;20184;-76
2022/08/01 04:37:01;;;;;;;;;;;;;;;23.55;58.17;153576.23;1704811;82;20181;-77
2022/08/01 04:39:30;;;;;;;;;;;;;;;23.55;58.27;153576.23;1705054;83;20205;-77
2022/08/01 04:41:58;;;;;;;;;;;;;;;23.57;58.35;153581.47;1704716;84;20374;-77
2022/08/01 04:44:27;;;;;;;;;;;;;;;23.66;58.26;153605.02;1704823;83;21255;-77
2022/08/01 04:46:54;;;;;;;;;;;;;;;23.71;57.83;153618.09;1704406;83;21569;-78
2022/08/01 04:49:24;;;;;;;;;;;;;;;23.78;57.49;153633.83;1704785;83;20189;-78
2022/08/01 04:51:52;;;;;;;;;;;;;;;23.81;57.26;153642.97;1705075;83;20208;-78
2022/08/01 04:54:19;;;;;;;;;;;;;;;23.88;57.24;153659.98;1704801;83;20153;-78
2022/08/01 04:56:45;;;;;;;;;;;;;;;23.95;56.65;153677.03;1705140;83;21240;-78
2022/08/01 05:01:57;;;;;;;;;;;;;;;24.06;56.35;153705.84;1704757;83;20276;-78
2022/08/01 05:04:24;;;;;;;;;;;;;;;24.07;56.40;153707.19;1703560;83;20498;-77
2022/08/01 05:06:51;;;;;;;;;;;;;;;24.06;56.36;153704.56;1686952;83;20318;-78
2022/08/01 05:09:17;;;;;;;;;;;;;;;24.06;56.42;153705.84;1678238;85;21147;-78
2022/08/01 05:11:44;;;;;;;;;;;;;;;24.07;56.47;153707.19;1676747;84;20178;-77
2022/08/01 05:14:11;;;;;;;;;;;;;;;24.11;56.32;153718.97;1669558;85;20141;-77
2022/08/01 05:16:37;;;;;;;;;;;;;;;24.12;56.29;153720.25;1735612;82;20487;-77
2022/08/01 05:19:04;;;;;;;;;;;;;;;24.14;56.28;153725.50;1743717;82;20202;-78
2022/08/01 05:21:31;;;;;;;;;;;;;;;24.14;56.04;153725.50;1747122;82;21132;-77
2022/08/01 05:23:58;;;;;;;;;;;;;;;24.08;56.22;153709.80;1746850;82;20466;-78
2022/08/01 05:26:24;;;;;;;;;;;;;;;24.08;56.32;153709.80;1747215;82;20147;-77
2022/08/01 05:28:51;;;;;;;;;;;;;;;24.02;56.30;153696.72;1747109;82;20514;-77
2022/08/01 05:31:18;;;;;;;;;;;;;;;24.00;56.37;153691.44;1747186;82;20167;-78
2022/08/01 05:33:45;;;;;;;;;;;;;;;23.96;56.47;153680.92;1747035;82;21226;-77
2022/08/01 05:36:12;;;;;;;;;;;;;;;23.91;56.65;153667.84;1747041;82;20146;-78
2022/08/01 05:38:38;;;;;;;;;;;;;;;23.95;56.73;153678.31;1747076;82;20174;-78
2022/08/01 05:41:05;;;;;;;;;;;;;;;23.92;56.94;153670.45;1747066;82;20416;-77
2022/08/01 05:43:32;;;;;;;;;;;;;;;23.88;57.42;153661.33;1728233;82;20172;-77
2022/08/01 05:46:00;;;;;;;;;;;;;;;23.89;58.08;153662.61;1728350;82;21251;-77
2022/08/01 05:48:27;;;;;;;;;;;;;;;23.97;58.75;153683.53;1728535;82;20441;-77
2022/08/01 05:50:57;;;;;;;;;;;;;;;24.07;58.82;153707.19;1728403;82;20175;-77
2022/08/01 05:53:24;;;;;;;;;;;;;;;24.09;58.46;153712.41;1728562;83;20191;-77
2022/08/01 05:55:50;;;;;;;;;;;;;;;24.11;58.19;153717.64;1728350;82;20171;-77
2022/08/01 05:58:17;;;;;;;;;;;;;;;24.16;58.45;153730.72;1728374;82;21212;-77
2022/08/01 06:00:44;;;;;;;;;;;;;;;24.22;59.15;153746.47;1728544;82;20150;-77
2022/08/01 06:03:11;;;;;;;;;;;;;;;24.26;59.98;153756.94;1726698;83;20179;-77
2022/08/01 06:05:38;;;;;;;;;;;;;;;24.32;60.59;153772.64;1698756;83;20525;-77
2022/08/01 06:08:04;;;;;;;;;;;;;;;24.49;59.76;153814.56;1703813;83;20517;-78
2022/08/01 06:10:31;;;;;;;;;;;;;;;24.60;59.03;153843.34;1706077;81;21955;-77
2022/08/01 06:13:02;;;;;;;;;;;;;;;24.76;58.68;153882.70;1705281;82;20199;-77
2022/08/01 06:15:27;;;;;;;;;;;;;;;24.94;58.83;153928.53;1707074;81;20196;-77
2022/08/01 06:17:54;;;;;;;;;;;;;;;24.99;58.01;153940.33;1703844;82;20191;-77
2022/08/01 06:20:21;;;;;;;;;;;;;;;25.01;58.14;153945.56;1695336;84;20150;-77
2022/08/01 06:22:48;;;;;;;;;;;;;;;25.15;58.63;153982.27;1683343;84;21143;-76
2022/08/01 06:25:14;;;;;;;;;;;;;;;25.31;59.11;154021.53;1689033;84;20179;-77
2022/08/01 06:27:44;;;;;;;;;;;;;;;25.37;60.11;154037.30;1682813;84;20205;-78
2022/08/01 06:30:11;;;;;;;;;;;;;;;25.49;60.36;154066.14;1684749;84;20139;-77
2022/08/01 06:32:38;;;;;;;;;;;;;;;25.60;59.83;154095.00;1689917;83;20483;-76
2022/08/01 06:35:06;;;;;;;;;;;;;;;25.65;57.97;154108.09;1683558;84;22157;-76
2022/08/01 06:37:32;;;;;;;;;;;;;;;25.71;56.96;154122.52;1683369;83;20175;-77
2022/08/01 06:40:04;;;;;;;;;;;;;;;25.67;55.51;154113.33;1723423;81;20216;-78
2022/08/01 06:42:35;;;;;;;;;;;;;;;25.62;55.23;154100.23;1699822;84;20520;-78
2022/08/01 06:45:03;;;;;;;;;;;;;;;25.58;56.10;154091.05;1710087;81;20202;-78
2022/08/01 06:47:30;;;;;;;;;;;;;;;25.63;56.80;154102.86;1706572;81;21879;-78
2022/08/01 06:49:56;;;;;;;;;;;;;;;25.66;56.95;154110.70;1679556;84;20278;-77
2022/08/01 06:52:23;;;;;;;;;;;;;;;25.71;57.42;154123.81;1707815;81;20158;-77
2022/08/01 06:54:50;;;;;;;;;;;;;;;25.79;57.71;154142.19;1710220;81;20687;-77
2022/08/01 06:57:16;;;;;;;;;;;;;;;25.92;57.05;154176.23;1717889;81;20137;-78
2022/08/01 06:59:43;;;;;;;;;;;;;;;26.06;56.85;154210.33;1697093;84;21278;-78
2022/08/01 07:02:10;;;;;;;;;;;;;;;26.25;57.12;154258.86;1717838;81;20160;-78
2022/08/01 07:04:37;;;;;;;;;;;;;;;26.52;56.46;154328.36;1705108;81;20176;-78
2022/08/01 07:07:04;;;;;;;;;;;;;;;26.65;56.24;154361.13;1677976;83;20199;-78
2022/08/01 07:09:31;;;;;;;;;;;;;;;26.79;55.33;154396.53;1710561;81;20180;-78
2022/08/01 07:11:58;;;;;;;;;;;;;;;26.85;54.73;154412.31;1696678;82;21239;-77
2022/08/01 07:14:25;;;;;;;;;;;;;;;26.87;52.15;154417.59;1697739;83;20126;-77
2022/08/01 07:16:52;;;;;;;;;;;;;;;26.93;53.20;154430.70;1701909;83;20205;-76
2022/08/01 07:19:19;;;;;;;;;;;;;;;27.04;53.46;154459.52;1701627;83;20447;-77
2022/08/01 07:21:45;;;;;;;;;;;;;;;27.11;51.13;154477.91;1699803;83;20145;-77
2022/08/01 07:24:13;;;;;;;;;;;;;;;27.14;50.97;154485.78;1701372;83;21061;-78
2022/08/01 07:26:44;;;;;;;;;;;;;;;27.28;50.10;154519.86;1701191;83;20115;-78
2022/08/01 07:29:11;;;;;;;;;;;;;;;27.44;49.27;154561.84;1698138;83;20181;-77
2022/08/01 07:31:37;;;;;;;;;;;;;;;27.57;48.55;154594.69;1705670;83;20197;-77
2022/08/01 07:34:04;;;;;;;;;;;;;;;27.60;48.02;154601.25;1702384;83;20197;-78
2022/08/01 07:36:31;;;;;;;;;;;;;;;27.65;47.55;154613.08;1697972;83;21311;-78
2022/08/01 07:38:58;;;;;;;;;;;;;;;27.76;47.67;154641.92;1702517;82;20296;-78
2022/08/01 07:41:25;;;;;;;;;;;;;;;27.86;47.23;154666.84;1691366;83;20141;-77
2022/08/01 07:43:51;;;;;;;;;;;;;;;27.97;47.31;154695.75;1698898;83;20193;-78
2022/08/01 07:46:18;;;;;;;;;;;;;;;28.11;46.80;154729.83;1700144;83;20149;-78
2022/08/01 07:48:45;;;;;;;;;;;;;;;28.23;46.14;154761.39;1699327;83;21946;-78
2022/08/01 07:51:12;;;;;;;;;;;;;;;28.39;45.08;154800.73;1697656;82;21194;-78
2022/08/01 07:53:38;;;;;;;;;;;;;;;28.59;44.61;154851.95;1693048;83;20490;-77
2022/08/01 07:56:06;;;;;;;;;;;;;;;28.73;43.68;154887.39;1700310;82;20610;-78
2022/08/01 07:58:33;;;;;;;;;;;;;;;28.75;43.00;154892.62;1699921;83;20181;-78
2022/08/01 08:01:00;;;;;;;;;;;;;;;28.83;42.46;154912.38;1699401;83;21241;-78
2022/08/01 08:03:26;;;;;;;;;;;;;;;28.92;40.42;154934.70;1708133;82;20168;-78
2022/08/01 08:05:54;;;;;;;;;;;;;;;28.74;40.17;154890.00;1695976;83;32610;-59
2022/08/01 08:08:21;;;;;;;;;;;;;;;28.56;40.11;154845.38;1698690;84;20149;-59
2022/08/01 08:10:47;;;;;;;;;;;;;;;28.50;40.48;154829.63;1692062;84;20197;-59
2022/08/01 08:13:15;;;;;;;;;;;;;;;28.47;40.37;154821.77;1697998;82;21214;-59
2022/08/01 08:15:41;;;;;;;;;;;;;;;28.47;40.20;154821.77;1698698;83;21185;-60
2022/08/01 08:18:08;;;;;;;;;;;;;;;28.49;40.06;154825.67;1707824;83;20218;-59
2022/08/01 08:20:35;;;;;;;;;;;;;;;28.45;39.74;154816.52;1699185;83;20167;-59
2022/08/01 08:24:19;;;;;;;;;;;;;;;28.42;39.29;154808.66;1700036;83;20210;-59
2022/08/01 08:25:31;;;;;;;;;;;;;;;28.44;39.42;154813.89;1696239;82;21440;-59
2022/08/01 08:27:58;;;;;;;;;;;;;;;28.51;39.08;154832.25;1698309;83;20220;-59
2022/08/01 08:30:24;;;;;;;;;;;;;;;28.67;38.98;154871.66;1704058;83;20154;-58
2022/08/01 08:32:51;;;;;;;;;;;;;;;28.84;38.95;154915.00;1699428;83;21472;-59
2022/08/01 08:35:18;;;;;;;;;;;;;;;29.10;38.42;154980.64;1691804;84;20205;-59
2022/08/01 08:37:44;;;;;;;;;;;;;;;29.30;37.82;155031.88;1706670;83;21253;-60
2022/08/01 08:40:11;;;;;;;;;;;;;;;29.43;37.78;155064.75;1697437;82;20233;-59
2022/08/01 08:42:40;;;;;;;;;;;;;;;29.57;37.53;155100.20;1699399;82;20470;-59
2022/08/01 08:45:07;;;;;;;;;;;;;;;29.64;37.04;155118.56;1696523;83;20193;-59
2022/08/01 08:47:34;;;;;;;;;;;;;;;29.77;37.02;155150.11;1698030;83;20211;-60
2022/08/01 08:50:02;;;;;;;;;;;;;;;29.93;36.39;155192.11;1704098;82;21137;-59
2022/08/01 08:52:28;;;;;;;;;;;;;;;29.98;36.21;155205.28;1699718;83;20174;-60
2022/08/01 08:54:55;;;;;;;;;;;;;;;30.05;35.99;155221.08;1701231;83;20171;-60
2022/08/01 08:57:22;;;;;;;;;;;;;;;30.18;36.31;155255.25;1701312;83;20197;-60
2022/08/01 08:59:51;;;;;;;;;;;;;;;30.38;36.26;155306.47;1704641;83;20217;-61
2022/08/01 09:02:18;;;;;;;;;;;;;;;30.58;35.73;155356.41;1698217;83;21285;-61
2022/08/01 09:04:44;;;;;;;;;;;;;;;30.76;35.39;155402.44;1705235;83;20226;-61
2022/08/01 09:07:11;;;;;;;;;;;;;;;30.93;35.27;155444.50;1679649;83;20190;-61
2022/08/01 09:09:38;;;;;;;;;;;;;;;31.14;34.92;155499.69;1700164;83;20454;-61
2022/08/01 09:12:05;;;;;;;;;;;;;;;31.27;34.18;155532.59;1706199;83;20641;-60
2022/08/01 09:14:35;;;;;;;;;;;;;;;31.13;34.33;155497.06;1705401;82;21918;-61
2022/08/01 09:17:06;;;;;;;;;;;;;;;31.10;34.63;155487.86;1689199;82;20542;-61
2022/08/01 09:19:44;;;;;;;;;;;;;;;31.19;34.75;155510.20;1706766;83;20165;-61
2022/08/01 09:22:13;;;;;;;;;;;;;;;31.26;34.75;155528.64;1702149;83;20224;-61
2022/08/01 09:24:40;;;;;;;;;;;;;;;31.32;34.45;155544.45;1698874;83;20158;-61
2022/08/01 09:27:18;;;;;;;;;;;;;;;31.36;34.48;155554.95;1702223;83;21251;-61
2022/08/01 09:29:44;;;;;;;;;;;;;;;31.36;34.34;155554.95;1703957;83;20181;-61
2022/08/01 09:32:11;;;;;;;;;;;;;;;31.35;34.39;155550.98;1702199;83;20213;-61
2022/08/01 09:34:38;;;;;;;;;;;;;;;31.21;34.73;155516.84;1701234;83;20233;-61
2022/08/01 09:37:05;;;;;;;;;;;;;;;31.14;34.53;155499.69;1702418;83;20464;-60
2022/08/01 09:39:36;;;;;;;;;;;;;;;31.03;34.76;155470.75;1702234;82;21128;-59
2022/08/01 09:42:23;;;;;;;;;;;;;;;31.03;34.90;155470.75;1706755;82;20177;-60
2022/08/01 09:44:50;;;;;;;;;;;;;;;31.04;34.86;155472.09;1700822;82;20189;-61
2022/08/01 09:47:17;;;;;;;;;;;;;;;30.95;34.77;155449.75;1703188;83;20197;-61
2022/08/01 09:49:44;;;;;;;;;;;;;;;30.87;34.93;155431.38;1681306;83;20179;-60
2022/08/01 09:52:13;;;;;;;;;;;;;;;30.87;35.03;155431.38;1695281;83;21221;-61
2022/08/01 09:54:40;;;;;;;;;;;;;;;30.81;35.34;155414.28;1705870;83;20421;-61
2022/08/01 09:57:12;;;;;;;;;;;;;;;30.77;35.52;155405.06;1700924;83;20197;-62
2022/08/01 09:59:42;;;;;;;;;;;;;;;30.83;35.50;155420.81;1701202;83;20192;-61
2022/08/01 10:02:11;;;;;;;;;;;;;;;30.92;35.63;155441.88;1701824;83;20184;-61
2022/08/01 10:04:37;;;;;;;;;;;;;;;30.91;35.72;155439.25;1701646;83;21288;-61
2022/08/01 10:07:05;;;;;;;;;;;;;;;30.83;35.75;155420.81;1702029;83;20197;-61
2022/08/01 10:09:34;;;;;;;;;;;;;;;30.67;35.64;155380.09;1700729;83;20248;-62
2022/08/01 10:12:01;;;;;;;;;;;;;;;30.56;35.55;155351.16;1700990;83;20133;-61
2022/08/01 10:14:28;;;;;;;;;;;;;;;30.43;35.30;155318.31;1699034;83;20181;-60
2022/08/01 10:16:56;;;;;;;;;;;;;;;30.34;35.15;155295.97;1698870;83;21257;-60
2022/08/01 10:19:24;;;;;;;;;;;;;;;30.36;35.70;155299.89;1700829;82;20578;-61
2022/08/01 10:21:53;;;;;;;;;;;;;;;30.35;36.17;155297.25;1699587;83;20388;-60
2022/08/01 10:24:20;;;;;;;;;;;;;;;30.12;36.36;155239.45;1704208;83;21764;-61
2022/08/01 10:26:59;;;;;;;;;;;;;;;29.92;36.59;155189.48;1705855;83;20184;-61
2022/08/01 10:29:25;;;;;;;;;;;;;;;29.82;36.89;155163.23;1701483;83;21108;-61
2022/08/01 10:31:53;;;;;;;;;;;;;;;29.91;37.26;155186.86;1702618;83;20189;-60
2022/08/01 10:34:20;;;;;;;;;;;;;;;29.97;37.35;155202.66;1702470;83;20491;-60
2022/08/01 10:36:49;;;;;;;;;;;;;;;30.01;37.38;155213.20;1702356;83;20480;-61
2022/08/01 10:39:18;;;;;;;;;;;;;;;30.06;37.09;155223.70;1705881;81;20220;-60
2022/08/01 10:41:45;;;;;;;;;;;;;;;30.00;36.83;155210.53;1704511;83;21147;-60
2022/08/01 10:44:11;;;;;;;;;;;;;;;29.90;37.23;155184.23;1700560;83;20212;-60
2022/08/01 10:46:39;;;;;;;;;;;;;;;29.94;37.35;155193.44;1703574;83;20223;-61
2022/08/01 10:49:14;;;;;;;;;;;;;;;30.02;37.12;155214.50;1704647;83;20208;-61
2022/08/01 10:51:41;;;;;;;;;;;;;;;29.95;37.22;155197.36;1700293;84;20177;-60
2022/08/01 10:54:08;;;;;;;;;;;;;;;29.83;37.20;155167.16;1703609;83;21186;-62
2022/08/01 10:56:46;;;;;;;;;;;;;;;29.70;37.08;155134.31;1701235;83;20201;-60
2022/08/01 10:59:27;;;;;;;;;;;;;;;29.55;37.22;155096.25;1704511;83;20153;-61
2022/08/01 11:02:02;;;;;;;;;;;;;;;29.47;37.28;155073.91;1702256;83;20196;-61
2022/08/01 11:04:47;;;;;;;;;;;;;;;29.45;37.04;155070.00;1701906;84;20409;-61
2022/08/01 11:07:17;;;;;;;;;;;;;;;29.40;37.37;155058.11;1694614;84;21157;-61
2022/08/01 11:09:47;;;;;;;;;;;;;;;29.42;37.49;155063.41;1696336;83;20193;-60
2022/08/01 11:12:21;;;;;;;;;;;;;;;29.46;37.83;155072.63;1716471;82;20455;-59
2022/08/01 11:15:04;;;;;;;;;;;;;;;29.60;39.22;155108.08;1710154;82;20376;-60
2022/08/01 11:17:44;;;;;;;;;;;;;;;29.72;40.14;155139.56;1706752;83;20811;-59
2022/08/01 11:20:11;;;;;;;;;;;;;;;29.94;40.68;155194.73;1703266;83;21123;-60
2022/08/01 11:23:01;;;;;;;;;;;;;;;30.11;41.81;155238.17;1704320;83;20142;-59
2022/08/01 11:25:37;;;;;;;;;;;;;;;30.25;43.62;155272.30;1665705;85;20177;-59
2022/08/01 11:28:20;;;;;;;;;;;;;;;30.24;44.50;155271.00;1663455;85;20219;-60
2022/08/01 11:30:52;;;;;;;;;;;;;;;30.05;45.36;155221.08;1650767;85;20137;-60
2022/08/01 11:33:21;;;;;;;;;;;;;;;29.76;45.63;155147.50;1713221;83;21354;-59
2022/08/01 11:36:17;;;;;;;;;;;;;;;29.45;47.15;155071.28;1688670;82;20175;-60
2022/08/01 11:38:51;;;;;;;;;;;;;;;29.19;47.72;155002.97;1691943;83;20177;-59
2022/08/01 11:41:23;;;;;;;;;;;;;;;29.02;48.96;154960.94;1697032;83;20224;-60
2022/08/01 11:44:04;;;;;;;;;;;;;;;29.02;48.56;154960.94;1712008;83;20184;-59
2022/08/01 11:47:04;;;;;;;;;;;;;;;29.04;48.80;154966.19;1705075;83;21150;-59
2022/08/01 11:49:47;;;;;;;;;;;;;;;28.90;49.50;154929.45;1702669;83;20134;-58
2022/08/01 11:52:25;;;;;;;;;;;;;;;28.72;50.39;154884.77;1702244;83;20170;-59
2022/08/01 11:54:59;;;;;;;;;;;;;;;28.54;51.14;154840.13;1701678;83;20205;-59
2022/08/01 11:57:30;;;;;;;;;;;;;;;28.37;52.10;154796.83;1701458;83;20154;-76
2022/08/01 11:59:57;;;;;;;;;;;;;;;28.27;52.71;154771.89;1700565;83;21323;-76
2022/08/01 12:02:33;;;;;;;;;;;;;;;28.24;52.63;154762.69;1698655;83;20142;-76
2022/08/01 12:05:08;;;;;;;;;;;;;;;28.11;52.82;154729.83;1705596;83;20183;-76
2022/08/01 12:07:37;;;;;;;;;;;;;;;28.00;52.36;154703.61;1674775;83;20149;-75
2022/08/01 12:10:14;;;;;;;;;;;;;;;28.06;52.31;154716.72;1696967;83;20209;-76
2022/08/01 12:12:45;;;;;;;;;;;;;;;28.15;52.58;154740.31;1702417;82;21341;-78
2022/08/01 12:15:12;;;;;;;;;;;;;;;28.20;52.48;154753.53;1702657;83;20280;-76
2022/08/01 12:17:41;;;;;;;;;;;;;;;28.26;52.04;154769.27;1703853;83;20184;-76
2022/08/01 12:20:10;;;;;;;;;;;;;;;28.24;51.96;154764.02;1706741;83;20133;-77
2022/08/01 12:22:37;;;;;;;;;;;;;;;28.25;51.95;154766.64;1697509;83;20178;-76
2022/08/01 12:25:12;;;;;;;;;;;;;;;28.31;51.71;154781.09;1700499;83;21246;-76
2022/08/01 12:27:40;;;;;;;;;;;;;;;28.28;51.91;154773.17;1702723;83;20352;-77
2022/08/01 12:30:08;;;;;;;;;;;;;;;28.25;52.05;154766.64;1707281;83;20181;-76
2022/08/01 12:32:37;;;;;;;;;;;;;;;28.27;52.31;154770.55;1705106;83;20575;-76
2022/08/01 12:35:15;;;;;;;;;;;;;;;28.30;52.42;154779.75;1702493;83;20178;-76
2022/08/01 12:37:47;;;;;;;;;;;;;;;28.31;51.99;154782.37;1701468;83;21935;-76
2022/08/01 12:40:17;;;;;;;;;;;;;;;28.38;51.97;154798.11;1705613;83;20121;-75
2022/08/01 12:42:45;;;;;;;;;;;;;;;28.41;51.28;154806.03;1701102;83;20313;-59
2022/08/01 12:45:15;;;;;;;;;;;;;;;28.33;51.00;154785.00;1702399;83;20235;-60
2022/08/01 12:47:43;;;;;;;;;;;;;;;28.30;50.86;154779.75;1698079;83;20197;-75
2022/08/01 12:50:15;;;;;;;;;;;;;;;28.27;50.20;154770.55;1699031;83;21101;-76